Time;durP1;ratioP1;P1;durP2;ratioP2;P2;SDS_P1;SDS_P2;PMS_P1;PMS_P2;Temp;Humidity;BMP_temperature;BMP_pressure;BME280_temperature;BME280_humidity;BME280_pressure;Samples;Min_cycle;Max_cycle;Signal;HPM_P1;HPM_P2
2021/03/16 00:01:04;;;;;;;1.05;0.60;;;;;;;1.63;64.39;92139.00;5090987;28;20505;-71
2021/03/16 00:03:30;;;;;;;1.98;0.65;;;;;;;1.65;64.82;92150.00;5090632;28;20028;-71
2021/03/16 00:05:55;;;;;;;1.35;0.60;;;;;;;1.62;65.23;92152.44;5091755;28;20491;-71
2021/03/16 00:08:21;;;;;;;0.57;0.30;;;;;;;1.51;65.38;92157.91;5092044;28;20099;-71
2021/03/16 00:10:46;;;;;;;1.77;0.65;;;;;;;1.40;66.09;92146.09;5090667;28;20380;-71
2021/03/16 00:13:12;;;;;;;1.58;0.50;;;;;;;1.34;66.58;92148.06;5090435;28;20028;-71
2021/03/16 00:15:37;;;;;;;1.88;0.70;;;;;;;1.39;66.06;92144.56;5090713;28;20027;-72
2021/03/16 00:18:04;;;;;;;1.00;0.60;;;;;;;1.35;66.83;92143.59;5090278;28;20040;-71
2021/03/16 00:20:30;;;;;;;0.65;0.50;;;;;;;1.38;66.91;92143.78;5091888;28;20050;-70
2021/03/16 00:22:56;;;;;;;0.57;0.50;;;;;;;1.35;65.45;92154.88;5091774;28;20043;-70
2021/03/16 00:25:22;;;;;;;0.90;0.45;;;;;;;1.35;65.47;92154.09;5089600;28;20380;-71
2021/03/16 00:27:48;;;;;;;0.98;0.60;;;;;;;1.47;66.02;92150.94;5090443;28;20027;-71
2021/03/16 00:30:14;;;;;;;1.08;0.50;;;;;;;1.49;65.12;92154.06;5090393;28;20479;-70
2021/03/16 00:32:39;;;;;;;0.95;0.60;;;;;;;1.52;65.58;92138.44;5090247;28;20155;-71
2021/03/16 00:35:06;;;;;;;0.30;0.30;;;;;;;1.55;64.32;92137.09;5091614;28;20028;-70
2021/03/16 00:37:31;;;;;;;0.40;0.40;;;;;;;1.52;64.05;92146.31;5089199;28;20107;-71
2021/03/16 00:39:57;;;;;;;0.57;0.40;;;;;;;1.58;64.28;92147.75;5088908;28;20158;-70
2021/03/16 00:42:22;;;;;;;0.60;0.40;;;;;;;1.58;63.82;92147.75;5091488;28;20048;-70
2021/03/16 00:44:48;;;;;;;0.50;0.45;;;;;;;1.59;63.87;92149.31;5089934;28;20110;-71
2021/03/16 00:47:13;;;;;;;0.73;0.47;;;;;;;1.63;64.08;92138.22;5089502;28;20650;-71
2021/03/16 00:49:39;;;;;;;0.73;0.43;;;;;;;1.61;63.71;92107.03;5089554;28;20077;-71
2021/03/16 00:52:04;;;;;;;0.40;0.40;;;;;;;1.60;63.74;92121.22;5090657;28;20028;-71
2021/03/16 00:54:30;;;;;;;4.85;0.38;;;;;;;1.59;64.29;92143.31;5089766;28;20056;-71
2021/03/16 00:56:55;;;;;;;0.43;0.40;;;;;;;1.57;65.00;92130.47;5089647;28;20455;-71
2021/03/16 00:59:21;;;;;;;0.73;0.32;;;;;;;1.54;65.58;92161.78;5090757;28;20104;-70
2021/03/16 01:01:46;;;;;;;0.32;0.30;;;;;;;1.38;66.16;92114.09;5091150;28;20024;-70
2021/03/16 01:04:12;;;;;;;0.43;0.40;;;;;;;1.39;66.77;92141.94;5089832;28;20110;-71
2021/03/16 01:06:37;;;;;;;0.70;0.50;;;;;;;1.30;67.43;92151.56;5091307;28;20492;-71
2021/03/16 01:09:03;;;;;;;0.38;0.35;;;;;;;1.22;67.69;92126.81;5091211;28;20038;-70
2021/03/16 01:11:29;;;;;;;1.08;0.47;;;;;;;1.14;68.48;92135.38;5089220;28;20060;-70
2021/03/16 01:13:54;;;;;;;0.38;0.38;;;;;;;1.09;68.57;92125.78;5089479;28;20067;-71
2021/03/16 01:16:20;;;;;;;1.48;0.43;;;;;;;1.13;69.65;92129.38;5088836;28;20028;-70
2021/03/16 01:18:45;;;;;;;0.57;0.50;;;;;;;1.11;69.74;92134.13;5089182;28;20027;-70
2021/03/16 01:21:11;;;;;;;0.40;0.40;;;;;;;1.04;70.63;92127.72;5088932;28;20026;-71
2021/03/16 01:23:36;;;;;;;1.08;0.43;;;;;;;0.97;70.40;92134.16;5090494;28;20111;-71
2021/03/16 01:26:04;;;;;;;4.57;0.60;;;;;;;0.94;70.70;92134.75;5089548;28;20453;-71
2021/03/16 01:28:29;;;;;;;0.95;0.50;;;;;;;0.89;71.42;92140.09;5088874;28;20032;-71
2021/03/16 01:30:56;;;;;;;0.43;0.40;;;;;;;0.90;70.30;92118.06;5089105;28;20501;-71
2021/03/16 01:33:22;;;;;;;0.80;0.50;;;;;;;0.97;70.53;92128.91;5088868;28;20024;-70
2021/03/16 01:35:47;;;;;;;0.30;0.30;;;;;;;0.93;69.35;92109.59;5088593;28;20430;-72
2021/03/16 01:38:12;;;;;;;0.75;0.40;;;;;;;0.94;69.40;92110.38;5090033;28;20127;-70
2021/03/16 01:40:40;;;;;;;0.52;0.40;;;;;;;1.02;68.84;92109.69;5089863;28;20024;-70
2021/03/16 01:43:12;;;;;;;0.30;0.30;;;;;;;1.00;68.88;92135.44;5088845;28;20582;-70
2021/03/16 01:45:40;;;;;;;0.30;0.30;;;;;;;1.06;69.62;92104.59;5088753;28;20028;-70
2021/03/16 01:48:06;;;;;;;2.08;0.28;;;;;;;1.07;68.87;92106.94;5089718;28;20023;-70
2021/03/16 01:50:33;;;;;;;0.30;0.30;;;;;;;1.11;68.97;92107.88;5088574;28;20089;-71
2021/03/16 01:52:59;;;;;;;0.65;0.35;;;;;;;1.07;68.14;92106.16;5088245;28;20125;-70
2021/03/16 01:55:27;;;;;;;0.52;0.38;;;;;;;1.02;69.30;92114.13;5090065;28;20041;-70
2021/03/16 01:57:54;;;;;;;0.30;0.30;;;;;;;1.04;69.65;92110.16;5087958;28;20092;-71
2021/03/16 02:00:20;;;;;;;0.20;0.20;;;;;;;1.03;69.60;92111.22;5088031;28;20031;-73
2021/03/16 02:02:45;;;;;;;0.20;0.20;;;;;;;1.04;69.24;92106.75;5088599;28;20415;-72
2021/03/16 02:05:12;;;;;;;1.20;0.30;;;;;;;1.04;69.21;92104.13;5089624;28;20040;-72
2021/03/16 02:08:12;;;;;;;1.27;0.40;;;;;;;1.07;69.07;92117.44;5088161;28;20411;-72
2021/03/16 02:11:03;;;;;;;0.50;0.30;;;;;;;1.06;69.43;92112.47;5089313;28;20057;-72
2021/03/16 02:13:42;;;;;;;1.45;0.30;;;;;;;1.02;69.38;92099.19;5087984;28;20528;-71
2021/03/16 02:16:15;;;;;;;0.30;0.30;;;;;;;1.03;69.56;92094.72;5089362;28;20056;-71
2021/03/16 02:18:53;;;;;;;0.43;0.30;;;;;;;1.09;70.37;92135.50;5089527;28;20036;-71
2021/03/16 02:21:21;;;;;;;0.43;0.38;;;;;;;1.10;68.34;92102.94;5089073;28;20107;-72
2021/03/16 02:23:46;;;;;;;0.32;0.30;;;;;;;1.13;68.61;92099.72;5089399;28;20039;-72
2021/03/16 02:26:45;;;;;;;0.30;0.30;;;;;;;1.22;67.60;92128.66;5089163;28;20032;-72
2021/03/16 02:29:17;;;;;;;0.47;0.40;;;;;;;1.27;66.94;92104.94;5088773;28;20509;-73
2021/03/16 02:31:47;;;;;;;0.80;0.50;;;;;;;1.30;66.63;92101.69;5087913;28;20448;-73
2021/03/16 02:34:16;;;;;;;0.82;0.30;;;;;;;1.37;64.99;92121.22;5088167;28;20089;-73
2021/03/16 02:36:43;;;;;;;3.15;0.50;;;;;;;1.44;66.14;92096.41;5089104;28;20511;-73
2021/03/16 02:39:10;;;;;;;0.32;0.30;;;;;;;1.43;65.41;92113.22;5088782;28;20103;-73
2021/03/16 02:41:38;;;;;;;1.00;0.40;;;;;;;1.41;66.03;92110.91;5087544;28;20080;-72
2021/03/16 02:44:05;;;;;;;0.63;0.40;;;;;;;1.35;65.64;92101.59;5087760;28;20206;-73
2021/03/16 02:46:31;;;;;;;0.50;0.40;;;;;;;1.40;66.66;92104.88;5088849;28;20072;-73
2021/03/16 02:48:58;;;;;;;0.43;0.20;;;;;;;1.36;66.37;92106.56;5089093;28;20020;-73
2021/03/16 02:51:24;;;;;;;2.38;0.32;;;;;;;1.40;64.58;92109.34;5088016;28;20482;-73
2021/03/16 02:53:53;;;;;;;0.43;0.32;;;;;;;1.43;64.90;92093.00;5087255;28;20040;-73
2021/03/16 02:56:20;;;;;;;0.32;0.30;;;;;;;1.42;63.83;92128.19;5087790;28;20027;-73
2021/03/16 02:58:48;;;;;;;0.55;0.47;;;;;;;1.43;64.99;92111.38;5088655;28;20131;-73
2021/03/16 03:01:15;;;;;;;0.63;0.30;;;;;;;1.50;64.56;92124.06;5089244;28;20067;-73
2021/03/16 03:03:41;;;;;;;0.38;0.30;;;;;;;1.49;63.05;92106.78;5089118;28;20030;-74
2021/03/16 03:06:08;;;;;;;0.63;0.35;;;;;;;1.54;62.88;92098.78;5091524;28;20226;-74
2021/03/16 03:08:34;;;;;;;0.65;0.40;;;;;;;1.55;63.28;92095.09;5091487;28;20138;-74
2021/03/16 03:11:00;;;;;;;1.08;0.40;;;;;;;1.53;64.01;92107.75;5091098;28;20112;-74
2021/03/16 03:13:26;;;;;;;1.05;0.50;;;;;;;1.54;63.46;92114.53;5091538;28;20089;-73
2021/03/16 03:15:53;;;;;;;0.38;0.32;;;;;;;1.55;62.97;92127.38;5092552;28;20020;-73
2021/03/16 03:18:19;;;;;;;0.30;0.30;;;;;;;1.55;63.14;92116.09;5092754;28;20028;-74
2021/03/16 03:20:45;;;;;;;0.73;0.47;;;;;;;1.58;64.33;92112.84;5092873;28;20099;-74
2021/03/16 03:23:19;;;;;;;0.55;0.43;;;;;;;1.48;63.67;92116.50;5092656;28;20465;-74
2021/03/16 03:26:00;;;;;;;0.75;0.40;;;;;;;1.49;64.57;92133.81;5091599;28;20055;-74
2021/03/16 03:28:28;;;;;;;0.95;0.57;;;;;;;1.42;62.98;92116.91;5092599;28;20028;-74
2021/03/16 03:30:59;;;;;;;0.68;0.40;;;;;;;1.45;63.67;92142.59;5091348;28;20035;-73
2021/03/16 03:33:26;;;;;;;0.90;0.40;;;;;;;1.48;63.12;92137.50;5092821;28;20027;-74
2021/03/16 03:35:51;;;;;;;0.32;0.25;;;;;;;1.42;64.00;92122.16;5091182;28;20402;-73
2021/03/16 03:38:19;;;;;;;0.35;0.35;;;;;;;1.40;64.41;92114.59;5090743;28;20024;-73
2021/03/16 03:40:45;;;;;;;0.75;0.40;;;;;;;1.39;65.05;92136.69;5092106;28;20020;-72
2021/03/16 03:43:12;;;;;;;0.52;0.30;;;;;;;1.23;65.46;92131.00;5090652;28;20379;-73
2021/03/16 03:45:39;;;;;;;0.30;0.30;;;;;;;1.23;65.19;92133.63;5092277;28;20135;-72
2021/03/16 03:48:09;;;;;;;0.57;0.40;;;;;;;1.20;66.21;92137.63;5090816;28;20020;-73
2021/03/16 03:50:36;;;;;;;0.30;0.30;;;;;;;1.11;67.34;92143.84;5090347;28;20081;-73
2021/03/16 03:53:02;;;;;;;1.20;0.45;;;;;;;1.04;69.19;92141.66;5090707;28;20136;-73
2021/03/16 03:55:29;;;;;;;1.55;0.68;;;;;;;0.94;68.53;92142.63;5091734;28;20110;-73
2021/03/16 03:57:55;;;;;;;0.40;0.40;;;;;;;0.89;69.14;92134.84;5091801;28;20103;-73
2021/03/16 04:00:21;;;;;;;0.30;0.30;;;;;;;0.80;69.80;92128.78;5090025;28;20070;-73
2021/03/16 04:02:47;;;;;;;1.30;0.40;;;;;;;0.82;68.90;92147.63;5090941;28;20119;-73
2021/03/16 04:05:14;;;;;;;0.57;0.57;;;;;;;0.74;70.30;92153.56;5089825;28;20449;-73
2021/03/16 04:07:41;;;;;;;0.60;0.38;;;;;;;0.59;70.76;92155.41;5089828;28;20026;-72
2021/03/16 04:10:09;;;;;;;0.77;0.50;;;;;;;0.54;70.68;92139.78;5089951;28;20031;-73
2021/03/16 04:12:38;;;;;;;0.90;0.40;;;;;;;0.55;69.96;92164.94;5091095;28;20034;-73
2021/03/16 04:15:07;;;;;;;3.15;0.73;;;;;;;0.56;71.43;92189.28;5091091;28;20347;-72
2021/03/16 04:17:33;;;;;;;2.17;0.50;;;;;;;0.57;68.84;92178.53;5089267;28;20027;-73
2021/03/16 04:19:58;;;;;;;0.40;0.30;;;;;;;0.63;68.39;92137.22;5090547;28;20035;-72
2021/03/16 04:22:25;;;;;;;0.77;0.50;;;;;;;0.67;69.10;92197.72;5089984;28;20130;-73
2021/03/16 04:24:55;;;;;;;0.22;0.22;;;;;;;0.60;69.98;92180.53;5090765;28;20106;-72
2021/03/16 04:27:20;;;;;;;0.30;0.30;;;;;;;0.63;70.58;92178.41;5089936;28;20015;-73
2021/03/16 04:29:46;;;;;;;2.17;0.43;;;;;;;0.61;70.00;92178.69;5089368;28;20055;-73
2021/03/16 04:32:11;;;;;;;0.88;0.60;;;;;;;0.63;69.22;92179.19;5091014;28;20031;-72
2021/03/16 04:34:37;;;;;;;0.85;0.43;;;;;;;0.66;67.92;92169.97;5091087;28;20020;-71
2021/03/16 04:37:02;;;;;;;10.95;0.60;;;;;;;0.69;69.33;92151.03;5090600;28;20031;-72
2021/03/16 04:39:27;;;;;;;0.65;0.45;;;;;;;0.68;67.61;92183.56;5091094;28;20564;-72
2021/03/16 04:41:53;;;;;;;0.93;0.50;;;;;;;0.74;67.82;92166.66;5089392;28;20081;-72
2021/03/16 04:44:18;;;;;;;0.20;0.20;;;;;;;0.77;67.65;92168.69;5090558;28;20573;-72
2021/03/16 04:46:44;;;;;;;0.57;0.45;;;;;;;0.80;67.37;92166.25;5089355;28;20024;-73
2021/03/16 04:49:09;;;;;;;0.22;0.22;;;;;;;0.80;66.93;92168.13;5089209;28;20032;-71
2021/03/16 04:51:34;;;;;;;1.75;0.50;;;;;;;0.86;67.83;92174.03;5089580;28;20111;-72
2021/03/16 04:54:00;;;;;;;0.30;0.30;;;;;;;0.92;67.83;92183.34;5088853;28;20040;-72
2021/03/16 04:56:25;;;;;;;0.63;0.40;;;;;;;0.92;67.96;92168.38;5089260;28;20031;-71
2021/03/16 04:58:50;;;;;;;0.77;0.43;;;;;;;0.92;68.39;92181.50;5091018;28;20499;-71
2021/03/16 05:01:17;;;;;;;3.53;0.60;;;;;;;0.82;69.58;92191.44;5090765;28;20028;-71
2021/03/16 05:03:42;;;;;;;0.47;0.43;;;;;;;0.72;71.25;92189.78;5089312;28;20027;-72
2021/03/16 05:06:08;;;;;;;0.88;0.40;;;;;;;0.66;71.45;92186.47;5088983;28;20028;-72
2021/03/16 05:08:33;;;;;;;0.68;0.50;;;;;;;0.61;71.96;92178.69;5089381;28;20016;-72
2021/03/16 05:10:59;;;;;;;0.40;0.40;;;;;;;0.58;72.53;92193.16;5090690;28;20430;-73
2021/03/16 05:13:24;;;;;;;1.10;0.50;;;;;;;0.54;73.25;92210.56;5089037;28;20047;-73
2021/03/16 05:15:50;;;;;;;1.17;0.60;;;;;;;0.43;74.40;92203.97;5090562;28;20024;-72
2021/03/16 05:18:15;;;;;;;1.42;0.63;;;;;;;0.41;76.22;92200.84;5090153;28;20024;-73
2021/03/16 05:20:40;;;;;;;0.80;0.50;;;;;;;0.31;75.04;92222.00;5090057;28;20479;-73
2021/03/16 05:23:06;;;;;;;1.70;0.70;;;;;;;0.10;76.56;92211.06;5089105;28;20053;-71
2021/03/16 05:25:31;;;;;;;0.73;0.40;;;;;;;0.09;77.90;92194.59;5090423;28;20024;-72
2021/03/16 05:27:57;;;;;;;1.83;1.00;;;;;;;-0.05;78.42;92206.88;5090791;28;20040;-72
2021/03/16 05:30:23;;;;;;;0.80;0.57;;;;;;;-0.13;79.71;92199.69;5089839;28;20030;-72
2021/03/16 05:32:57;;;;;;;0.60;0.50;;;;;;;-0.23;79.27;92211.88;5089613;28;20020;-72
2021/03/16 05:35:24;;;;;;;1.20;0.80;;;;;;;-0.27;80.16;92191.78;5089554;28;20118;-71
2021/03/16 05:37:50;;;;;;;1.25;0.70;;;;;;;-0.18;80.59;92200.56;5089907;28;20020;-71
2021/03/16 05:40:16;;;;;;;0.80;0.60;;;;;;;-0.23;80.04;92195.38;5091302;28;20107;-71
2021/03/16 05:42:42;;;;;;;0.80;0.63;;;;;;;-0.30;79.87;92214.09;5091060;28;20028;-72
2021/03/16 05:45:08;;;;;;;1.50;0.73;;;;;;;-0.33;80.65;92217.25;5089028;28;20034;-71
2021/03/16 05:47:34;;;;;;;1.20;0.68;;;;;;;-0.29;80.87;92220.84;5089403;28;20112;-71
2021/03/16 05:50:01;;;;;;;1.52;0.60;;;;;;;-0.35;80.84;92216.75;5089034;28;20518;-71
2021/03/16 05:52:26;;;;;;;1.25;0.82;;;;;;;-0.33;81.13;92248.66;5090921;28;20471;-71
2021/03/16 05:54:54;;;;;;;0.90;0.70;;;;;;;-0.35;81.85;92229.84;5088347;28;20055;-70
2021/03/16 05:57:19;;;;;;;1.48;0.80;;;;;;;-0.29;81.49;92235.81;5089643;28;20077;-70
2021/03/16 05:59:47;;;;;;;0.65;0.50;;;;;;;-0.30;79.98;92231.63;5088392;28;20063;-71
2021/03/16 06:02:12;;;;;;;0.77;0.60;;;;;;;-0.31;79.40;92249.16;5088058;28;20038;-71
2021/03/16 06:04:44;;;;;;;1.50;0.85;;;;;;;-0.26;79.79;92224.78;5089646;28;20467;-70
2021/03/16 06:07:12;;;;;;;0.70;0.60;;;;;;;-0.29;78.78;92241.81;5087979;28;20243;-70
2021/03/16 06:09:43;;;;;;;1.15;0.73;;;;;;;-0.22;78.52;92237.00;5089671;28;20479;-70
2021/03/16 06:12:09;;;;;;;0.90;0.60;;;;;;;-0.16;78.70;92260.47;5087828;28;20020;-71
2021/03/16 06:14:35;;;;;;;4.15;0.70;;;;;;;-0.08;77.00;92251.97;5088018;28;20031;-71
2021/03/16 06:17:01;;;;;;;1.73;0.73;;;;;;;-0.10;76.91;92256.72;5088028;28;20471;-71
2021/03/16 06:19:33;;;;;;;1.92;0.98;;;;;;;-0.03;77.91;92244.03;5089364;28;20096;-70
2021/03/16 06:22:06;;;;;;;2.43;0.80;;;;;;;-0.09;76.95;92240.72;5089438;28;20055;-70
2021/03/16 06:24:32;;;;;;;1.10;0.77;;;;;;;-0.16;77.53;92276.19;5089560;28;20372;-70
2021/03/16 06:26:58;;;;;;;1.63;0.90;;;;;;;-0.18;77.71;92271.25;5089763;28;20031;-70
2021/03/16 06:29:24;;;;;;;1.38;0.95;;;;;;;-0.24;78.62;92257.44;5088155;28;20042;-70
2021/03/16 06:31:51;;;;;;;1.40;1.00;;;;;;;-0.25;78.60;92278.69;5085802;28;20114;-70
2021/03/16 06:34:21;;;;;;;2.38;1.13;;;;;;;-0.28;79.05;92280.03;5088186;28;20101;-70
2021/03/16 06:36:56;;;;;;;2.03;0.77;;;;;;;-0.30;78.88;92305.72;5087852;28;20111;-71
2021/03/16 06:39:21;;;;;;;1.33;0.60;;;;;;;-0.32;79.39;92270.41;5091564;28;20512;-71
2021/03/16 06:41:47;;;;;;;2.47;1.20;;;;;;;-0.39;79.53;92301.41;5091688;28;20023;-71
2021/03/16 06:44:17;;;;;;;2.58;0.93;;;;;;;-0.37;79.41;92270.47;5092334;28;20028;-72
2021/03/16 06:46:50;;;;;;;1.75;1.05;;;;;;;-0.37;80.30;92292.19;5094101;28;20023;-71
2021/03/16 06:49:17;;;;;;;3.03;1.40;;;;;;;-0.46;80.36;92320.84;5092965;28;20024;-72
2021/03/16 06:51:43;;;;;;;2.17;1.30;;;;;;;-0.45;80.48;92317.19;5093765;28;20020;-71
2021/03/16 06:54:14;;;;;;;2.17;1.23;;;;;;;-0.47;80.66;92298.38;5094014;28;20399;-72
2021/03/16 06:56:40;;;;;;;2.83;1.38;;;;;;;-0.45;80.15;92279.75;5093205;28;20027;-71
2021/03/16 06:59:06;;;;;;;1.98;1.17;;;;;;;-0.45;79.51;92296.25;5092057;28;20020;-72
2021/03/16 07:01:35;;;;;;;2.22;1.33;;;;;;;-0.40;80.38;92316.34;5093005;28;20028;-71
2021/03/16 07:04:14;;;;;;;2.22;1.35;;;;;;;-0.37;79.17;92301.88;5092076;28;20028;-71
2021/03/16 07:06:40;;;;;;;2.58;1.02;;;;;;;-0.36;78.60;92313.94;5092640;28;20024;-70
2021/03/16 07:09:09;;;;;;;4.40;1.23;;;;;;;-0.43;79.04;92301.97;5092683;28;20032;-71
2021/03/16 07:11:35;;;;;;;3.17;1.48;;;;;;;-0.36;79.10;92329.66;5094516;28;20398;-71
2021/03/16 07:14:02;;;;;;;2.20;1.50;;;;;;;-0.39;78.82;92320.50;5094029;28;20039;-71
2021/03/16 07:16:27;;;;;;;3.70;1.85;;;;;;;-0.41;78.73;92315.56;5093082;28;20043;-71
2021/03/16 07:18:53;;;;;;;4.25;1.83;;;;;;;-0.36;78.36;92314.72;5091898;28;20044;-72
2021/03/16 07:21:25;;;;;;;3.10;1.63;;;;;;;-0.38;78.09;92327.31;5092852;28;20074;-72
2021/03/16 07:23:52;;;;;;;3.95;1.85;;;;;;;-0.42;79.21;92313.22;5091790;28;20471;-70
2021/03/16 07:26:18;;;;;;;3.88;1.90;;;;;;;-0.36;77.71;92334.88;5091146;28;20503;-70
2021/03/16 07:28:47;;;;;;;2.67;1.75;;;;;;;-0.38;78.36;92337.78;5092919;28;20064;-70
2021/03/16 07:31:13;;;;;;;4.10;1.83;;;;;;;-0.37;76.81;92351.63;5090621;28;20487;-69
2021/03/16 07:33:40;;;;;;;3.17;1.65;;;;;;;-0.34;76.92;92341.38;5091134;28;20020;-70
2021/03/16 07:36:06;;;;;;;3.67;1.67;;;;;;;-0.37;76.84;92335.94;5091854;28;20120;-70
2021/03/16 07:38:33;;;;;;;3.83;2.20;;;;;;;-0.34;77.36;92307.34;5092016;28;20020;-69
2021/03/16 07:41:02;;;;;;;4.90;2.42;;;;;;;-0.38;77.54;92347.47;5090740;28;20063;-70
2021/03/16 07:43:40;;;;;;;3.83;2.40;;;;;;;-0.37;76.00;92364.72;5090678;28;20047;-70
2021/03/16 07:46:14;;;;;;;4.35;2.67;;;;;;;-0.37;77.09;92346.41;5090495;28;20020;-70
2021/03/16 07:48:51;;;;;;;4.28;2.40;;;;;;;-0.35;76.97;92347.66;5091953;28;20110;-70
2021/03/16 07:51:18;;;;;;;3.22;2.05;;;;;;;-0.43;77.66;92351.72;5090149;28;20112;-70
2021/03/16 07:54:06;;;;;;;3.30;2.15;;;;;;;-0.47;77.40;92374.28;5090435;28;20048;-69
2021/03/16 07:56:34;;;;;;;9.23;2.60;;;;;;;-0.42;78.63;92360.34;5088871;28;20028;-70
2021/03/16 07:59:04;;;;;;;5.07;3.17;;;;;;;-0.45;77.84;92353.84;5090307;28;20051;-70
2021/03/16 08:01:30;;;;;;;6.50;3.05;;;;;;;-0.47;79.17;92355.94;5089874;28;20027;-70
2021/03/16 08:04:09;;;;;;;4.43;3.13;;;;;;;-0.42;77.50;92357.72;5090366;28;20050;-70
2021/03/16 08:06:36;;;;;;;6.03;3.25;;;;;;;-0.46;79.18;92372.44;5090040;28;20479;-70
2021/03/16 08:09:04;;;;;;;4.60;3.10;;;;;;;-0.41;79.56;92365.28;5091263;28;20072;-70
2021/03/16 08:11:38;;;;;;;4.57;3.17;;;;;;;-0.46;79.58;92375.81;5091108;28;20238;-70
2021/03/16 08:14:05;;;;;;;4.93;3.10;;;;;;;-0.45;79.79;92384.44;5090869;28;20491;-70
2021/03/16 08:16:37;;;;;;;10.38;3.25;;;;;;;-0.43;78.61;92388.34;5091724;28;20335;-72
2021/03/16 08:19:16;;;;;;;3.35;2.47;;;;;;;-0.40;79.78;92371.31;5090165;28;20053;-72
2021/03/16 08:21:43;;;;;;;6.75;2.50;;;;;;;-0.46;79.85;92367.97;5089749;28;20028;-72
2021/03/16 08:24:15;;;;;;;7.95;3.17;;;;;;;-0.47;79.86;92361.19;5089882;28;20024;-71
2021/03/16 08:26:54;;;;;;;3.90;2.70;;;;;;;-0.44;79.10;92370.31;5091193;28;20403;-71
2021/03/16 08:29:27;;;;;;;4.93;2.60;;;;;;;-0.42;79.79;92376.03;5090693;28;20046;-72
2021/03/16 08:31:54;;;;;;;3.90;2.15;;;;;;;-0.40;77.69;92381.78;5089421;28;20031;-72
2021/03/16 08:34:25;;;;;;;4.97;2.80;;;;;;;-0.42;79.72;92368.19;5089202;28;20036;-72
2021/03/16 08:36:50;;;;;;;4.63;2.30;;;;;;;-0.34;78.20;92383.28;5089623;28;20055;-73
2021/03/16 08:39:24;;;;;;;5.75;2.55;;;;;;;-0.37;78.64;92375.19;5090710;28;20468;-73
2021/03/16 08:41:57;;;;;;;4.68;2.60;;;;;;;-0.33;78.60;92384.03;5089375;28;20031;-73
2021/03/16 08:44:32;;;;;;;4.50;2.70;;;;;;;-0.34;79.95;92380.66;5089803;28;20024;-73
2021/03/16 08:47:08;;;;;;;6.93;3.50;;;;;;;-0.40;79.47;92421.03;5088439;28;20024;-73
2021/03/16 08:49:39;;;;;;;4.55;2.95;;;;;;;-0.49;80.02;92386.06;5089058;28;20034;-72
2021/03/16 08:52:05;;;;;;;5.45;3.20;;;;;;;-0.57;80.73;92370.97;5089702;28;20490;-73
2021/03/16 08:54:30;;;;;;;4.55;2.70;;;;;;;-0.61;80.48;92374.16;5090777;28;20040;-71
2021/03/16 08:56:56;;;;;;;8.00;3.30;;;;;;;-0.54;81.52;92376.44;5089983;28;20028;-71
2021/03/16 08:59:22;;;;;;;4.65;2.83;;;;;;;-0.51;80.68;92386.38;5089913;28;20036;-71
2021/03/16 09:01:50;;;;;;;5.13;3.30;;;;;;;-0.49;80.63;92378.22;5088874;28;20043;-70
2021/03/16 09:04:17;;;;;;;7.15;3.10;;;;;;;-0.49;81.60;92396.53;5091108;28;20023;-71
2021/03/16 09:06:44;;;;;;;6.63;3.83;;;;;;;-0.52;81.00;92389.25;5089560;28;20020;-71
2021/03/16 09:09:11;;;;;;;14.15;3.75;;;;;;;-0.48;79.94;92388.41;5089299;28;20603;-72
2021/03/16 09:11:43;;;;;;;4.13;2.83;;;;;;;-0.49;80.13;92376.41;5089554;28;20433;-71
2021/03/16 09:14:08;;;;;;;;;;;;;;;-0.50;79.60;92366.19;5089992;28;20111;-71
2021/03/16 09:16:37;;;;;;;4.88;2.15;;;;;;;-0.51;79.12;92375.09;5090250;28;20050;-72
2021/03/16 09:19:03;;;;;;;3.47;2.60;;;;;;;-0.52;79.47;92404.97;5090370;28;20035;-70
2021/03/16 09:21:28;;;;;;;5.53;3.33;;;;;;;-0.48;79.48;92403.34;5089241;28;20020;-71
2021/03/16 09:24:01;;;;;;;8.27;3.53;;;;;;;-0.45;78.69;92394.91;5089288;28;20095;-70
2021/03/16 09:26:27;;;;;;;4.88;2.95;;;;;;;-0.42;79.10;92373.44;5088492;28;20016;-70
2021/03/16 09:28:53;;;;;;;3.33;2.55;;;;;;;-0.38;77.37;92386.75;5088755;28;20518;-71
2021/03/16 09:31:25;;;;;;;4.35;2.90;;;;;;;-0.35;78.40;92373.84;5089054;28;20020;-71
2021/03/16 09:33:51;;;;;;;5.10;3.17;;;;;;;-0.35;77.76;92405.25;5088745;28;20403;-70
2021/03/16 09:36:27;;;;;;;4.25;2.47;;;;;;;-0.33;77.14;92415.47;5088495;28;20115;-72
2021/03/16 09:38:56;;;;;;;4.07;2.67;;;;;;;-0.30;77.54;92384.25;5088219;28;20036;-72
2021/03/16 09:41:22;;;;;;;4.78;3.05;;;;;;;-0.29;77.94;92388.44;5087912;28;20039;-72
2021/03/16 09:43:48;;;;;;;4.95;2.60;;;;;;;-0.29;76.01;92417.22;5088608;28;20602;-72
2021/03/16 09:46:14;;;;;;;3.88;2.65;;;;;;;-0.25;76.02;92415.59;5087146;28;20031;-72
2021/03/16 09:48:50;;;;;;;3.90;2.70;;;;;;;-0.23;76.47;92403.00;5088466;28;20056;-72
2021/03/16 09:51:22;;;;;;;7.82;2.85;;;;;;;-0.21;76.59;92390.41;5087909;28;20036;-72
2021/03/16 09:53:54;;;;;;;4.00;2.35;;;;;;;-0.17;75.36;92389.88;5087666;28;20054;-72
2021/03/16 09:56:32;;;;;;;6.22;2.90;;;;;;;-0.12;76.85;92392.41;5088597;28;20032;-72
2021/03/16 09:58:59;;;;;;;6.05;2.80;;;;;;;-0.12;75.89;92455.25;5089782;28;20027;-72
2021/03/16 10:01:26;;;;;;;3.85;2.28;;;;;;;-0.14;76.98;92405.00;5089175;28;20117;-72
2021/03/16 10:04:00;;;;;;;6.70;3.20;;;;;;;-0.19;76.77;92389.38;5089573;28;20036;-72
2021/03/16 10:06:34;;;;;;;5.38;2.50;;;;;;;-0.19;76.52;92397.22;5087322;28;20026;-72
2021/03/16 10:09:00;;;;;;;4.57;2.72;;;;;;;-0.13;76.25;92427.53;5088679;28;20031;-72
2021/03/16 10:11:31;;;;;;;4.38;2.45;;;;;;;-0.18;76.27;92409.25;5086712;28;20398;-72
2021/03/16 10:13:57;;;;;;;4.72;2.72;;;;;;;-0.16;76.72;92409.75;5088210;28;20063;-70
2021/03/16 10:16:22;;;;;;;3.95;2.45;;;;;;;-0.24;76.91;92443.38;5089378;28;20089;-70
2021/03/16 10:18:49;;;;;;;4.30;3.20;;;;;;;-0.28;77.08;92402.31;5088142;28;20501;-70
2021/03/16 10:21:15;;;;;;;6.30;3.13;;;;;;;-0.32;77.40;92425.66;5088368;28;20050;-70
2021/03/16 10:23:41;;;;;;;4.13;2.88;;;;;;;-0.34;77.92;92419.16;5089099;28;20028;-71
2021/03/16 10:26:08;;;;;;;4.88;2.67;;;;;;;-0.35;77.57;92426.22;5088979;28;20024;-71
2021/03/16 10:28:40;;;;;;;4.50;2.95;;;;;;;-0.31;78.79;92437.69;5089076;28;20460;-71
2021/03/16 10:31:16;;;;;;;5.63;3.45;;;;;;;-0.30;77.88;92428.78;5088031;28;20024;-70
2021/03/16 10:33:43;;;;;;;6.18;2.88;;;;;;;-0.31;78.56;92447.38;5089800;28;20028;-72
2021/03/16 10:36:09;;;;;;;4.28;2.78;;;;;;;-0.37;79.33;92428.31;5087915;28;20093;-69
2021/03/16 10:38:35;;;;;;;4.72;2.83;;;;;;;-0.31;79.34;92421.97;5088960;28;20111;-70
2021/03/16 10:41:01;;;;;;;10.65;2.90;;;;;;;-0.35;79.24;92425.44;5087469;28;20157;-70
2021/03/16 10:43:26;;;;;;;4.68;3.28;;;;;;;-0.35;79.25;92430.66;5088811;28;20034;-70
2021/03/16 10:45:56;;;;;;;3.50;2.10;;;;;;;-0.27;76.68;92441.28;5088965;28;20026;-70
2021/03/16 10:48:22;;;;;;;4.55;2.78;;;;;;;-0.25;79.00;92418.22;5089737;28;20098;-69
2021/03/16 10:50:48;;;;;;;4.18;2.40;;;;;;;-0.25;76.67;92436.56;5088031;28;20118;-71
2021/03/16 10:53:15;;;;;;;5.45;2.60;;;;;;;-0.25;76.75;92425.31;5089614;28;20044;-70
2021/03/16 10:55:40;;;;;;;4.50;3.10;;;;;;;-0.19;77.89;92418.19;5089497;28;20028;-72
2021/03/16 10:58:06;;;;;;;5.13;2.50;;;;;;;-0.17;77.59;92431.78;5089307;28;20024;-74
2021/03/16 11:00:31;;;;;;;4.88;2.72;;;;;;;-0.13;77.82;92449.25;5087985;28;20094;-74
2021/03/16 11:02:56;;;;;;;4.18;2.58;;;;;;;-0.15;77.50;92434.88;5089575;28;20092;-73
2021/03/16 11:05:22;;;;;;;4.68;2.65;;;;;;;-0.21;78.30;92442.03;5088120;28;20052;-74
2021/03/16 11:07:47;;;;;;;3.58;2.40;;;;;;;-0.32;78.42;92435.38;5089456;28;20050;-73
2021/03/16 11:10:13;;;;;;;5.60;2.38;;;;;;;-0.29;78.61;92427.69;5089459;28;20024;-73
2021/03/16 11:12:39;;;;;;;4.85;2.55;;;;;;;-0.32;79.99;92457.06;5089466;28;20024;-74
2021/03/16 11:15:05;;;;;;;4.13;2.75;;;;;;;-0.34;80.38;92443.50;5089630;28;20039;-74
2021/03/16 11:17:30;;;;;;;4.70;2.88;;;;;;;-0.37;79.58;92423.09;5089273;28;20419;-73
2021/03/16 11:19:55;;;;;;;4.88;3.13;;;;;;;-0.37;80.17;92438.03;5087894;28;20059;-73
2021/03/16 11:22:21;;;;;;;5.65;2.92;;;;;;;-0.43;80.24;92440.72;5089255;28;20035;-73
2021/03/16 11:24:48;;;;;;;4.70;2.92;;;;;;;-0.48;80.63;92443.38;5090059;28;20107;-73
2021/03/16 11:27:14;;;;;;;3.95;3.15;;;;;;;-0.52;81.10;92433.75;5092175;28;20020;-71
2021/03/16 11:29:39;;;;;;;7.60;3.30;;;;;;;-0.50;81.07;92435.03;5087939;28;20032;-73
2021/03/16 11:32:05;;;;;;;5.38;3.00;;;;;;;-0.46;80.92;92430.00;5091654;28;20024;-72
2021/03/16 11:34:30;;;;;;;5.15;3.13;;;;;;;-0.49;79.89;92461.97;5091386;28;20027;-72
2021/03/16 11:36:57;;;;;;;4.32;2.67;;;;;;;-0.52;81.38;92425.91;5091408;28;20119;-72
2021/03/16 11:39:22;;;;;;;5.60;3.63;;;;;;;-0.47;81.69;92434.47;5091204;28;20027;-72